Lake Worth, FL (33460)

12:49 PM EDT on July 24, 2016 (GMT -0400)
NOS_NWLON | | Change Station

Elev 0 ft 26.61 °N, 80.03 °W | Updated 1 hour ago

Thunderstorm
Thunderstorm
0.0 °F
Feels Like -12 °F
N
6.0
Wind Variable Wind from NE
Gusts 6.0 mph

Today
High -- | Low -- °F
--% Chance of Precip.
Yesterday
High -- | Low -- °F
Precip. -- in
Pressure 30.08 in
Visibility 7.0 miles
Clouds Scattered Clouds 3100 ft
Scattered Clouds 8000 ft
Mostly Cloudy 15000 ft
Mostly Cloudy 20000 ft
Windchill -12 °F
Dew Point Not available.
Humidity Not available.
Rainfall in
Snow Depth Not available.
6:41 AM 8:11 PM
Waning Gibbous, 75% visible
SPECI KPBI 241617Z 09008KT 7SM TS SCT031CB SCT080 BKN150 BKN200 29/23 A3008 RMK AO2 TSB17 OCNL LTGICCCCG SW TS SW MOV NW TCU DSNT NE-SE T02940228
Pressure 30.08 in
Visibility 7.0 miles
Clouds Scattered Clouds 3100 ft
Scattered Clouds 8000 ft
Mostly Cloudy 15000 ft
Mostly Cloudy 20000 ft
Windchill -12 °F
Dew Point Not available.
Humidity Not available.
Rainfall in
Snow Depth Not available.
6:41 AM 8:11 PM
Waning Gibbous, 75% visible
SPECI KPBI 241617Z 09008KT 7SM TS SCT031CB SCT080 BKN150 BKN200 29/23 A3008 RMK AO2 TSB17 OCNL LTGICCCCG SW TS SW MOV NW TCU DSNT NE-SE T02940228

10-Day Weather Forecast

Almanac

Astronomy

Jul. 24, 2016 Rise Set
Actual Time
Civil Twilight
Nautical Twilight
Astronomical Twilight
Moon
Length of Visible Light
Length of Day
Tomorrow will be .
, % of the Moon is Illuminated

Today's Extremes

State Highs State Lows

Community

WunderPhotos

Upload Photos

1,927,121 photos uploaded!

WunderBlog® & News

Nearby

Air Quality

  Air Quality AQ Index Pollutant
Not available.

Snow Depth

Station Depth Elevation

Earthquake Activity

City Distance Mag. Time & Date
Minimum magnitude displayed is 2.5.

Coastal Water Temperatures

Place Temperature

Stations

Nearby Weather Stations

Station Location Temp. Windchill Dew Point Humidity Wind Precip. Elev Updated Type
                   

Watches & Warnings

There are currently no watches in effect.